sensor_id;sensor_type;location;lat;lon;timestamp;temperature;humidity
31733;DHT22;18312;51.486;7.144;2022-10-16T00:01:25;13.40;99.90
31733;DHT22;18312;51.486;7.144;2022-10-16T00:03:53;13.40;99.90
31733;DHT22;18312;51.486;7.144;2022-10-16T00:06:21;13.40;99.90
31733;DHT22;18312;51.486;7.144;2022-10-16T00:08:50;13.40;99.90
31733;DHT22;18312;51.486;7.144;2022-10-16T00:11:20;13.30;99.90
31733;DHT22;18312;51.486;7.144;2022-10-16T00:13:48;13.30;99.90
31733;DHT22;18312;51.486;7.144;2022-10-16T00:16:15;13.20;99.90
31733;DHT22;18312;51.486;7.144;2022-10-16T00:18:42;13.20;99.90
31733;DHT22;18312;51.486;7.144;2022-10-16T00:21:11;13.20;99.90
31733;DHT22;18312;51.486;7.144;2022-10-16T00:23:38;13.20;99.90
31733;DHT22;18312;51.486;7.144;2022-10-16T00:26:09;13.20;99.90
31733;DHT22;18312;51.486;7.144;2022-10-16T00:28:36;13.20;99.90
31733;DHT22;18312;51.486;7.144;2022-10-16T00:31:04;13.30;99.90
31733;DHT22;18312;51.486;7.144;2022-10-16T00:33:30;13.30;99.90
31733;DHT22;18312;51.486;7.144;2022-10-16T00:35:57;13.30;99.90
31733;DHT22;18312;51.486;7.144;2022-10-16T00:38:24;13.20;99.90
31733;DHT22;18312;51.486;7.144;2022-10-16T00:40:51;13.30;99.90
31733;DHT22;18312;51.486;7.144;2022-10-16T00:43:36;13.30;99.90
31733;DHT22;18312;51.486;7.144;2022-10-16T00:46:05;13.30;99.90
31733;DHT22;18312;51.486;7.144;2022-10-16T00:48:32;13.30;99.90
31733;DHT22;18312;51.486;7.144;2022-10-16T00:50:59;13.30;99.90
31733;DHT22;18312;51.486;7.144;2022-10-16T00:53:26;13.30;99.90
31733;DHT22;18312;51.486;7.144;2022-10-16T00:55:53;13.30;99.90
31733;DHT22;18312;51.486;7.144;2022-10-16T00:58:21;13.40;99.90
31733;DHT22;18312;51.486;7.144;2022-10-16T01:00:49;13.40;99.90
31733;DHT22;18312;51.486;7.144;2022-10-16T01:03:25;13.40;99.90
31733;DHT22;18312;51.486;7.144;2022-10-16T01:06:00;13.50;99.90
31733;DHT22;18312;51.486;7.144;2022-10-16T01:08:34;13.50;99.90
31733;DHT22;18312;51.486;7.144;2022-10-16T01:11:10;13.40;99.90
31733;DHT22;18312;51.486;7.144;2022-10-16T01:13:43;13.50;99.90
31733;DHT22;18312;51.486;7.144;2022-10-16T01:16:15;13.50;99.90
31733;DHT22;18312;51.486;7.144;2022-10-16T01:18:46;13.60;99.90
31733;DHT22;18312;51.486;7.144;2022-10-16T01:21:19;13.60;99.90
31733;DHT22;18312;51.486;7.144;2022-10-16T01:23:54;13.60;99.90
31733;DHT22;18312;51.486;7.144;2022-10-16T01:26:35;13.60;99.90
31733;DHT22;18312;51.486;7.144;2022-10-16T01:29:09;13.60;99.90
31733;DHT22;18312;51.486;7.144;2022-10-16T01:31:46;13.50;99.90
31733;DHT22;18312;51.486;7.144;2022-10-16T01:34:16;13.50;99.90
31733;DHT22;18312;51.486;7.144;2022-10-16T01:36:49;13.40;99.90
31733;DHT22;18312;51.486;7.144;2022-10-16T01:39:20;13.40;99.90
31733;DHT22;18312;51.486;7.144;2022-10-16T01:41:51;13.40;99.90
31733;DHT22;18312;51.486;7.144;2022-10-16T01:44:25;13.40;99.90
31733;DHT22;18312;51.486;7.144;2022-10-16T01:46:53;13.40;99.90
31733;DHT22;18312;51.486;7.144;2022-10-16T01:49:21;13.30;99.90
31733;DHT22;18312;51.486;7.144;2022-10-16T01:51:53;13.30;99.90
31733;DHT22;18312;51.486;7.144;2022-10-16T01:54:23;13.30;99.90
31733;DHT22;18312;51.486;7.144;2022-10-16T01:56:52;13.30;99.90
31733;DHT22;18312;51.486;7.144;2022-10-16T01:59:25;13.30;99.90
31733;DHT22;18312;51.486;7.144;2022-10-16T02:01:55;13.20;99.90
31733;DHT22;18312;51.486;7.144;2022-10-16T02:04:28;13.30;99.90
31733;DHT22;18312;51.486;7.144;2022-10-16T02:06:55;13.30;99.90
31733;DHT22;18312;51.486;7.144;2022-10-16T02:09:22;13.30;99.90
31733;DHT22;18312;51.486;7.144;2022-10-16T02:11:51;13.30;99.90
31733;DHT22;18312;51.486;7.144;2022-10-16T02:14:19;13.30;99.90
31733;DHT22;18312;51.486;7.144;2022-10-16T02:16:48;13.30;99.90
31733;DHT22;18312;51.486;7.144;2022-10-16T02:19:16;13.30;99.90
31733;DHT22;18312;51.486;7.144;2022-10-16T02:21:50;13.30;99.90
31733;DHT22;18312;51.486;7.144;2022-10-16T02:24:21;13.30;99.90
31733;DHT22;18312;51.486;7.144;2022-10-16T02:26:54;13.30;99.90
31733;DHT22;18312;51.486;7.144;2022-10-16T02:29:25;13.30;99.90
31733;DHT22;18312;51.486;7.144;2022-10-16T02:31:56;13.30;99.90
31733;DHT22;18312;51.486;7.144;2022-10-16T02:34:25;13.30;99.90
31733;DHT22;18312;51.486;7.144;2022-10-16T02:36:53;13.30;99.90
31733;DHT22;18312;51.486;7.144;2022-10-16T02:39:20;13.30;99.90
31733;DHT22;18312;51.486;7.144;2022-10-16T02:41:47;13.30;99.90
31733;DHT22;18312;51.486;7.144;2022-10-16T02:44:14;13.30;99.90
31733;DHT22;18312;51.486;7.144;2022-10-16T02:46:41;13.30;99.90
31733;DHT22;18312;51.486;7.144;2022-10-16T02:49:09;13.20;99.90
31733;DHT22;18312;51.486;7.144;2022-10-16T02:51:35;13.30;99.90
31733;DHT22;18312;51.486;7.144;2022-10-16T02:54:02;13.20;99.90
31733;DHT22;18312;51.486;7.144;2022-10-16T02:56:30;13.30;99.90
31733;DHT22;18312;51.486;7.144;2022-10-16T02:58:56;13.30;99.90
31733;DHT22;18312;51.486;7.144;2022-10-16T03:01:23;13.30;99.90
31733;DHT22;18312;51.486;7.144;2022-10-16T03:03:50;13.30;99.90
31733;DHT22;18312;51.486;7.144;2022-10-16T03:06:18;13.30;99.90
31733;DHT22;18312;51.486;7.144;2022-10-16T03:08:45;13.30;99.90
31733;DHT22;18312;51.486;7.144;2022-10-16T03:11:12;13.30;99.90
31733;DHT22;18312;51.486;7.144;2022-10-16T03:13:38;13.30;99.90
31733;DHT22;18312;51.486;7.144;2022-10-16T03:16:05;13.30;99.90
31733;DHT22;18312;51.486;7.144;2022-10-16T03:18:32;13.40;99.90
31733;DHT22;18312;51.486;7.144;2022-10-16T03:20:58;13.40;99.90
31733;DHT22;18312;51.486;7.144;2022-10-16T03:23:27;13.40;99.90
31733;DHT22;18312;51.486;7.144;2022-10-16T03:25:54;13.40;99.90
31733;DHT22;18312;51.486;7.144;2022-10-16T03:28:21;13.40;99.90
31733;DHT22;18312;51.486;7.144;2022-10-16T03:30:47;13.40;99.90
31733;DHT22;18312;51.486;7.144;2022-10-16T03:33:15;13.40;99.90
31733;DHT22;18312;51.486;7.144;2022-10-16T03:35:42;13.40;99.90
31733;DHT22;18312;51.486;7.144;2022-10-16T03:38:08;13.40;99.90
31733;DHT22;18312;51.486;7.144;2022-10-16T03:40:37;13.40;99.90
31733;DHT22;18312;51.486;7.144;2022-10-16T03:43:03;13.40;99.90
31733;DHT22;18312;51.486;7.144;2022-10-16T03:45:30;13.40;99.90
31733;DHT22;18312;51.486;7.144;2022-10-16T03:47:57;13.30;99.90
31733;DHT22;18312;51.486;7.144;2022-10-16T03:50:23;13.30;99.90
31733;DHT22;18312;51.486;7.144;2022-10-16T03:52:50;13.30;99.90
31733;DHT22;18312;51.486;7.144;2022-10-16T03:55:17;13.20;99.90
31733;DHT22;18312;51.486;7.144;2022-10-16T03:57:45;13.10;99.90
31733;DHT22;18312;51.486;7.144;2022-10-16T04:00:13;13.00;99.90
31733;DHT22;18312;51.486;7.144;2022-10-16T04:02:39;13.10;99.90
31733;DHT22;18312;51.486;7.144;2022-10-16T04:05:07;13.10;99.90
31733;DHT22;18312;51.486;7.144;2022-10-16T04:07:33;13.10;99.90
31733;DHT22;18312;51.486;7.144;2022-10-16T04:10:00;13.10;99.90
31733;DHT22;18312;51.486;7.144;2022-10-16T04:12:27;13.00;99.90
31733;DHT22;18312;51.486;7.144;2022-10-16T04:14:55;12.90;99.90
31733;DHT22;18312;51.486;7.144;2022-10-16T04:17:22;12.80;99.90
31733;DHT22;18312;51.486;7.144;2022-10-16T04:19:48;12.80;99.90
31733;DHT22;18312;51.486;7.144;2022-10-16T04:22:15;12.80;99.90
31733;DHT22;18312;51.486;7.144;2022-10-16T04:24:42;12.90;99.90
31733;DHT22;18312;51.486;7.144;2022-10-16T04:27:08;12.90;99.90
31733;DHT22;18312;51.486;7.144;2022-10-16T04:29:35;12.90;99.90
31733;DHT22;18312;51.486;7.144;2022-10-16T04:32:03;12.90;99.90
31733;DHT22;18312;51.486;7.144;2022-10-16T04:34:30;12.90;99.90
31733;DHT22;18312;51.486;7.144;2022-10-16T04:36:57;13.00;99.90
31733;DHT22;18312;51.486;7.144;2022-10-16T04:39:23;13.00;99.90
31733;DHT22;18312;51.486;7.144;2022-10-16T04:41:50;12.90;99.90
31733;DHT22;18312;51.486;7.144;2022-10-16T04:44:17;12.90;99.90
31733;DHT22;18312;51.486;7.144;2022-10-16T04:46:43;12.90;99.90
31733;DHT22;18312;51.486;7.144;2022-10-16T04:49:12;12.90;99.90
31733;DHT22;18312;51.486;7.144;2022-10-16T04:51:38;12.90;99.90
31733;DHT22;18312;51.486;7.144;2022-10-16T04:54:05;12.90;99.90
31733;DHT22;18312;51.486;7.144;2022-10-16T04:56:32;12.80;99.90
31733;DHT22;18312;51.486;7.144;2022-10-16T04:59:05;12.80;99.90
31733;DHT22;18312;51.486;7.144;2022-10-16T05:01:32;12.90;99.90
31733;DHT22;18312;51.486;7.144;2022-10-16T05:03:58;12.90;99.90
31733;DHT22;18312;51.486;7.144;2022-10-16T05:06:26;12.90;99.90
31733;DHT22;18312;51.486;7.144;2022-10-16T05:08:53;13.00;99.90
31733;DHT22;18312;51.486;7.144;2022-10-16T05:11:20;13.00;99.90
31733;DHT22;18312;51.486;7.144;2022-10-16T05:13:47;13.10;99.90
31733;DHT22;18312;51.486;7.144;2022-10-16T05:16:14;13.10;99.90
31733;DHT22;18312;51.486;7.144;2022-10-16T05:18:41;13.20;99.90
31733;DHT22;18312;51.486;7.144;2022-10-16T05:21:08;13.20;99.90
31733;DHT22;18312;51.486;7.144;2022-10-16T05:23:36;13.20;99.90
31733;DHT22;18312;51.486;7.144;2022-10-16T05:26:03;13.30;99.90
31733;DHT22;18312;51.486;7.144;2022-10-16T05:28:30;13.30;99.90
31733;DHT22;18312;51.486;7.144;2022-10-16T05:30:57;13.30;99.90
31733;DHT22;18312;51.486;7.144;2022-10-16T05:33:25;13.30;99.90
31733;DHT22;18312;51.486;7.144;2022-10-16T05:35:52;13.30;99.90
31733;DHT22;18312;51.486;7.144;2022-10-16T05:38:19;13.30;99.90
31733;DHT22;18312;51.486;7.144;2022-10-16T05:40:51;13.20;99.90
31733;DHT22;18312;51.486;7.144;2022-10-16T05:43:18;13.20;99.90
31733;DHT22;18312;51.486;7.144;2022-10-16T05:45:53;13.20;99.90
31733;DHT22;18312;51.486;7.144;2022-10-16T05:48:20;13.30;99.90
31733;DHT22;18312;51.486;7.144;2022-10-16T05:50:47;13.30;99.90
31733;DHT22;18312;51.486;7.144;2022-10-16T05:53:14;13.20;99.90
31733;DHT22;18312;51.486;7.144;2022-10-16T05:55:41;13.30;99.90
31733;DHT22;18312;51.486;7.144;2022-10-16T05:58:09;13.30;99.90
31733;DHT22;18312;51.486;7.144;2022-10-16T06:00:36;13.20;99.90
31733;DHT22;18312;51.486;7.144;2022-10-16T06:03:03;13.20;99.90
31733;DHT22;18312;51.486;7.144;2022-10-16T06:05:32;13.10;99.90
31733;DHT22;18312;51.486;7.144;2022-10-16T06:07:58;13.20;99.90
31733;DHT22;18312;51.486;7.144;2022-10-16T06:10:25;13.20;99.90
31733;DHT22;18312;51.486;7.144;2022-10-16T06:12:52;13.20;99.90
31733;DHT22;18312;51.486;7.144;2022-10-16T06:15:20;13.20;99.90
31733;DHT22;18312;51.486;7.144;2022-10-16T06:17:46;13.20;99.90
31733;DHT22;18312;51.486;7.144;2022-10-16T06:20:13;13.10;99.90
31733;DHT22;18312;51.486;7.144;2022-10-16T06:22:40;13.10;99.90
31733;DHT22;18312;51.486;7.144;2022-10-16T06:25:07;13.20;99.90
31733;DHT22;18312;51.486;7.144;2022-10-16T06:27:34;13.20;99.90
31733;DHT22;18312;51.486;7.144;2022-10-16T06:30:00;13.10;99.90
31733;DHT22;18312;51.486;7.144;2022-10-16T06:32:30;13.10;99.90
31733;DHT22;18312;51.486;7.144;2022-10-16T06:34:57;13.20;99.90
31733;DHT22;18312;51.486;7.144;2022-10-16T06:37:24;13.10;99.90
31733;DHT22;18312;51.486;7.144;2022-10-16T06:39:51;13.10;99.90
31733;DHT22;18312;51.486;7.144;2022-10-16T06:42:18;13.10;99.90
31733;DHT22;18312;51.486;7.144;2022-10-16T06:44:45;13.30;99.90
31733;DHT22;18312;51.486;7.144;2022-10-16T06:47:12;13.30;99.90
31733;DHT22;18312;51.486;7.144;2022-10-16T06:49:40;13.40;99.90
31733;DHT22;18312;51.486;7.144;2022-10-16T06:52:07;13.50;99.90
31733;DHT22;18312;51.486;7.144;2022-10-16T06:54:33;13.50;99.90
31733;DHT22;18312;51.486;7.144;2022-10-16T06:57:00;13.60;99.90
31733;DHT22;18312;51.486;7.144;2022-10-16T06:59:27;13.70;99.90
31733;DHT22;18312;51.486;7.144;2022-10-16T07:01:54;13.70;99.90
31733;DHT22;18312;51.486;7.144;2022-10-16T07:04:20;13.80;99.90
31733;DHT22;18312;51.486;7.144;2022-10-16T07:06:48;13.90;99.90
31733;DHT22;18312;51.486;7.144;2022-10-16T07:09:16;13.90;99.90
31733;DHT22;18312;51.486;7.144;2022-10-16T07:11:43;13.90;99.90
31733;DHT22;18312;51.486;7.144;2022-10-16T07:14:15;13.90;99.90
31733;DHT22;18312;51.486;7.144;2022-10-16T07:16:42;14.00;99.90
31733;DHT22;18312;51.486;7.144;2022-10-16T07:19:09;14.20;99.90
31733;DHT22;18312;51.486;7.144;2022-10-16T07:21:37;14.20;99.90
31733;DHT22;18312;51.486;7.144;2022-10-16T07:24:07;14.10;99.90
31733;DHT22;18312;51.486;7.144;2022-10-16T07:26:35;14.10;99.90
31733;DHT22;18312;51.486;7.144;2022-10-16T07:29:04;14.00;99.90
31733;DHT22;18312;51.486;7.144;2022-10-16T07:31:31;13.90;99.90
31733;DHT22;18312;51.486;7.144;2022-10-16T07:33:59;13.90;99.90
31733;DHT22;18312;51.486;7.144;2022-10-16T07:36:26;14.00;99.90
31733;DHT22;18312;51.486;7.144;2022-10-16T07:38:53;14.00;99.90
31733;DHT22;18312;51.486;7.144;2022-10-16T07:41:21;14.00;99.90
31733;DHT22;18312;51.486;7.144;2022-10-16T07:43:49;14.10;99.90
31733;DHT22;18312;51.486;7.144;2022-10-16T07:46:17;15.00;99.90
31733;DHT22;18312;51.486;7.144;2022-10-16T07:48:44;15.40;99.90
31733;DHT22;18312;51.486;7.144;2022-10-16T07:51:14;15.70;99.90
31733;DHT22;18312;51.486;7.144;2022-10-16T07:53:41;15.60;99.90
31733;DHT22;18312;51.486;7.144;2022-10-16T07:56:08;15.10;99.90
31733;DHT22;18312;51.486;7.144;2022-10-16T07:58:36;15.00;99.90
31733;DHT22;18312;51.486;7.144;2022-10-16T08:01:05;15.50;99.90
31733;DHT22;18312;51.486;7.144;2022-10-16T08:03:32;17.30;99.90
31733;DHT22;18312;51.486;7.144;2022-10-16T08:05:59;18.60;99.90
31733;DHT22;18312;51.486;7.144;2022-10-16T08:08:27;17.40;99.90
31733;DHT22;18312;51.486;7.144;2022-10-16T08:10:54;16.60;99.90
31733;DHT22;18312;51.486;7.144;2022-10-16T08:13:20;17.40;99.90
31733;DHT22;18312;51.486;7.144;2022-10-16T08:15:48;17.20;99.90
31733;DHT22;18312;51.486;7.144;2022-10-16T08:18:16;16.50;99.90
31733;DHT22;18312;51.486;7.144;2022-10-16T08:20:43;16.10;99.90
31733;DHT22;18312;51.486;7.144;2022-10-16T08:23:11;15.90;99.90
31733;DHT22;18312;51.486;7.144;2022-10-16T08:25:38;15.90;99.90
31733;DHT22;18312;51.486;7.144;2022-10-16T08:28:06;15.80;99.90
31733;DHT22;18312;51.486;7.144;2022-10-16T08:30:33;15.80;99.90
31733;DHT22;18312;51.486;7.144;2022-10-16T08:33:02;15.80;99.90
31733;DHT22;18312;51.486;7.144;2022-10-16T08:35:29;15.80;99.90
31733;DHT22;18312;51.486;7.144;2022-10-16T08:37:56;15.80;99.90
31733;DHT22;18312;51.486;7.144;2022-10-16T08:40:24;15.80;99.90
31733;DHT22;18312;51.486;7.144;2022-10-16T08:43:19;15.80;99.90
31733;DHT22;18312;51.486;7.144;2022-10-16T08:46:04;15.90;99.90
31733;DHT22;18312;51.486;7.144;2022-10-16T08:48:38;15.90;99.90
31733;DHT22;18312;51.486;7.144;2022-10-16T08:51:13;15.90;99.90
31733;DHT22;18312;51.486;7.144;2022-10-16T08:53:44;16.00;99.90
31733;DHT22;18312;51.486;7.144;2022-10-16T08:56:12;16.00;99.90
31733;DHT22;18312;51.486;7.144;2022-10-16T08:58:39;16.00;99.90
31733;DHT22;18312;51.486;7.144;2022-10-16T09:01:16;16.00;99.90
31733;DHT22;18312;51.486;7.144;2022-10-16T09:04:03;16.10;99.90
31733;DHT22;18312;51.486;7.144;2022-10-16T09:06:40;16.10;99.90
31733;DHT22;18312;51.486;7.144;2022-10-16T09:12:18;16.40;99.90
31733;DHT22;18312;51.486;7.144;2022-10-16T09:14:56;16.50;99.90
31733;DHT22;18312;51.486;7.144;2022-10-16T09:17:32;16.50;99.90
31733;DHT22;18312;51.486;7.144;2022-10-16T09:20:15;16.60;99.90
31733;DHT22;18312;51.486;7.144;2022-10-16T09:22:44;16.70;99.90
31733;DHT22;18312;51.486;7.144;2022-10-16T09:25:13;16.60;99.90
31733;DHT22;18312;51.486;7.144;2022-10-16T09:27:40;16.70;99.90
31733;DHT22;18312;51.486;7.144;2022-10-16T09:30:13;16.70;99.90
31733;DHT22;18312;51.486;7.144;2022-10-16T09:32:40;16.80;99.90
31733;DHT22;18312;51.486;7.144;2022-10-16T09:35:14;16.80;99.90
31733;DHT22;18312;51.486;7.144;2022-10-16T09:37:42;16.70;99.90
31733;DHT22;18312;51.486;7.144;2022-10-16T09:40:13;16.70;99.90
31733;DHT22;18312;51.486;7.144;2022-10-16T09:42:40;16.70;99.90
31733;DHT22;18312;51.486;7.144;2022-10-16T09:45:21;16.60;99.90
31733;DHT22;18312;51.486;7.144;2022-10-16T09:47:48;16.60;99.90
31733;DHT22;18312;51.486;7.144;2022-10-16T09:50:23;16.70;99.90
31733;DHT22;18312;51.486;7.144;2022-10-16T09:53:02;16.80;99.90
31733;DHT22;18312;51.486;7.144;2022-10-16T09:55:29;16.80;99.90
31733;DHT22;18312;51.486;7.144;2022-10-16T09:57:56;16.90;99.90
31733;DHT22;18312;51.486;7.144;2022-10-16T10:00:24;16.90;99.90
31733;DHT22;18312;51.486;7.144;2022-10-16T10:02:51;16.90;99.90
31733;DHT22;18312;51.486;7.144;2022-10-16T10:05:22;17.00;99.90
31733;DHT22;18312;51.486;7.144;2022-10-16T10:07:55;17.20;99.90
31733;DHT22;18312;51.486;7.144;2022-10-16T10:10:24;17.20;99.90
31733;DHT22;18312;51.486;7.144;2022-10-16T10:12:52;17.20;99.90
31733;DHT22;18312;51.486;7.144;2022-10-16T10:15:19;17.20;99.90
31733;DHT22;18312;51.486;7.144;2022-10-16T10:17:48;17.20;99.90
31733;DHT22;18312;51.486;7.144;2022-10-16T10:20:24;17.40;99.90
31733;DHT22;18312;51.486;7.144;2022-10-16T10:22:52;17.50;99.90
31733;DHT22;18312;51.486;7.144;2022-10-16T10:25:39;17.60;99.90
31733;DHT22;18312;51.486;7.144;2022-10-16T10:28:14;17.70;99.90
31733;DHT22;18312;51.486;7.144;2022-10-16T10:30:49;17.70;99.90
31733;DHT22;18312;51.486;7.144;2022-10-16T10:33:24;17.80;99.90
31733;DHT22;18312;51.486;7.144;2022-10-16T10:36:00;17.60;99.90
31733;DHT22;18312;51.486;7.144;2022-10-16T10:38:38;17.60;99.90
31733;DHT22;18312;51.486;7.144;2022-10-16T10:41:19;17.70;99.90
31733;DHT22;18312;51.486;7.144;2022-10-16T10:43:56;17.80;99.90
31733;DHT22;18312;51.486;7.144;2022-10-16T10:46:39;17.90;99.90
31733;DHT22;18312;51.486;7.144;2022-10-16T10:49:27;18.00;99.90
31733;DHT22;18312;51.486;7.144;2022-10-16T10:52:02;17.90;99.90
31733;DHT22;18312;51.486;7.144;2022-10-16T10:54:39;17.80;99.90
31733;DHT22;18312;51.486;7.144;2022-10-16T10:57:14;17.70;99.90
31733;DHT22;18312;51.486;7.144;2022-10-16T11:02:52;18.00;99.90
31733;DHT22;18312;51.486;7.144;2022-10-16T11:05:37;17.80;99.90
31733;DHT22;18312;51.486;7.144;2022-10-16T11:08:17;17.90;99.90
31733;DHT22;18312;51.486;7.144;2022-10-16T11:10:50;17.70;99.90
31733;DHT22;18312;51.486;7.144;2022-10-16T11:13:28;17.70;99.90
31733;DHT22;18312;51.486;7.144;2022-10-16T11:15:59;17.80;99.90
31733;DHT22;18312;51.486;7.144;2022-10-16T11:18:32;18.00;99.90
31733;DHT22;18312;51.486;7.144;2022-10-16T11:21:04;18.10;99.90
31733;DHT22;18312;51.486;7.144;2022-10-16T11:23:37;18.30;99.90
31733;DHT22;18312;51.486;7.144;2022-10-16T11:26:11;18.50;99.90
31733;DHT22;18312;51.486;7.144;2022-10-16T11:28:44;18.40;99.90
31733;DHT22;18312;51.486;7.144;2022-10-16T11:31:17;18.40;99.90
31733;DHT22;18312;51.486;7.144;2022-10-16T11:33:49;18.40;99.90
31733;DHT22;18312;51.486;7.144;2022-10-16T11:36:21;18.30;99.90
31733;DHT22;18312;51.486;7.144;2022-10-16T11:38:54;18.20;99.90
31733;DHT22;18312;51.486;7.144;2022-10-16T11:41:27;18.30;99.90
31733;DHT22;18312;51.486;7.144;2022-10-16T11:44:10;18.30;99.90
31733;DHT22;18312;51.486;7.144;2022-10-16T11:46:48;18.20;99.90
31733;DHT22;18312;51.486;7.144;2022-10-16T11:49:16;18.20;99.90
31733;DHT22;18312;51.486;7.144;2022-10-16T11:51:48;18.40;99.90
31733;DHT22;18312;51.486;7.144;2022-10-16T11:54:24;18.60;99.90
31733;DHT22;18312;51.486;7.144;2022-10-16T11:56:56;18.90;99.90
31733;DHT22;18312;51.486;7.144;2022-10-16T11:59:28;19.20;99.90
31733;DHT22;18312;51.486;7.144;2022-10-16T12:02:07;19.40;99.90
31733;DHT22;18312;51.486;7.144;2022-10-16T12:04:42;19.60;99.90
31733;DHT22;18312;51.486;7.144;2022-10-16T12:07:14;19.50;99.90
31733;DHT22;18312;51.486;7.144;2022-10-16T12:09:45;19.90;99.90
31733;DHT22;18312;51.486;7.144;2022-10-16T12:12:25;19.80;99.90
31733;DHT22;18312;51.486;7.144;2022-10-16T12:15:01;19.60;99.90
31733;DHT22;18312;51.486;7.144;2022-10-16T12:17:35;19.90;99.90
31733;DHT22;18312;51.486;7.144;2022-10-16T12:20:20;19.90;99.90
31733;DHT22;18312;51.486;7.144;2022-10-16T12:22:48;19.80;99.90
31733;DHT22;18312;51.486;7.144;2022-10-16T12:25:26;19.60;99.90
31733;DHT22;18312;51.486;7.144;2022-10-16T12:27:59;19.50;99.90
31733;DHT22;18312;51.486;7.144;2022-10-16T12:30:29;19.20;99.90
31733;DHT22;18312;51.486;7.144;2022-10-16T12:32:58;19.30;99.90
31733;DHT22;18312;51.486;7.144;2022-10-16T12:35:27;19.20;99.90
31733;DHT22;18312;51.486;7.144;2022-10-16T12:38:05;19.20;99.90
31733;DHT22;18312;51.486;7.144;2022-10-16T12:40:35;19.30;99.90
31733;DHT22;18312;51.486;7.144;2022-10-16T12:43:25;19.30;99.90
31733;DHT22;18312;51.486;7.144;2022-10-16T12:46:19;19.10;99.90
31733;DHT22;18312;51.486;7.144;2022-10-16T12:48:47;19.10;99.90
31733;DHT22;18312;51.486;7.144;2022-10-16T12:51:33;19.30;99.90
31733;DHT22;18312;51.486;7.144;2022-10-16T12:54:01;19.40;99.90
31733;DHT22;18312;51.486;7.144;2022-10-16T12:56:38;19.40;99.90
31733;DHT22;18312;51.486;7.144;2022-10-16T12:59:16;19.40;99.90
31733;DHT22;18312;51.486;7.144;2022-10-16T13:01:56;19.40;99.90
31733;DHT22;18312;51.486;7.144;2022-10-16T13:07:43;19.70;99.90
31733;DHT22;18312;51.486;7.144;2022-10-16T13:10:17;19.60;99.90
31733;DHT22;18312;51.486;7.144;2022-10-16T13:13:18;19.90;99.90
31733;DHT22;18312;51.486;7.144;2022-10-16T13:15:59;20.00;99.90
31733;DHT22;18312;51.486;7.144;2022-10-16T13:18:34;20.10;99.90
31733;DHT22;18312;51.486;7.144;2022-10-16T13:21:16;19.90;99.90
31733;DHT22;18312;51.486;7.144;2022-10-16T13:23:51;19.60;99.90
31733;DHT22;18312;51.486;7.144;2022-10-16T13:26:28;19.60;99.90
31733;DHT22;18312;51.486;7.144;2022-10-16T13:29:00;19.80;99.90
31733;DHT22;18312;51.486;7.144;2022-10-16T13:31:28;19.90;99.90
31733;DHT22;18312;51.486;7.144;2022-10-16T13:33:57;20.00;99.90
31733;DHT22;18312;51.486;7.144;2022-10-16T13:36:26;20.10;99.90
31733;DHT22;18312;51.486;7.144;2022-10-16T13:39:03;19.90;99.90
31733;DHT22;18312;51.486;7.144;2022-10-16T13:41:33;19.50;99.90
31733;DHT22;18312;51.486;7.144;2022-10-16T13:44:02;19.50;99.90
31733;DHT22;18312;51.486;7.144;2022-10-16T13:46:29;19.40;99.90
31733;DHT22;18312;51.486;7.144;2022-10-16T13:49:01;19.30;99.90
31733;DHT22;18312;51.486;7.144;2022-10-16T13:51:28;19.20;99.90
31733;DHT22;18312;51.486;7.144;2022-10-16T13:53:56;19.20;99.90
31733;DHT22;18312;51.486;7.144;2022-10-16T13:56:26;19.20;99.90
31733;DHT22;18312;51.486;7.144;2022-10-16T13:59:06;19.10;99.90
31733;DHT22;18312;51.486;7.144;2022-10-16T14:01:34;19.10;99.90
31733;DHT22;18312;51.486;7.144;2022-10-16T14:04:03;19.10;99.90
31733;DHT22;18312;51.486;7.144;2022-10-16T14:06:31;19.10;99.90
31733;DHT22;18312;51.486;7.144;2022-10-16T14:09:00;19.10;99.90
31733;DHT22;18312;51.486;7.144;2022-10-16T14:11:31;19.20;99.90
31733;DHT22;18312;51.486;7.144;2022-10-16T14:13:59;19.30;99.90
31733;DHT22;18312;51.486;7.144;2022-10-16T14:16:30;19.30;99.90
31733;DHT22;18312;51.486;7.144;2022-10-16T14:18:58;19.40;99.90
31733;DHT22;18312;51.486;7.144;2022-10-16T14:21:26;19.50;99.90
31733;DHT22;18312;51.486;7.144;2022-10-16T14:23:56;19.50;99.90
31733;DHT22;18312;51.486;7.144;2022-10-16T14:26:25;19.40;99.90
31733;DHT22;18312;51.486;7.144;2022-10-16T14:29:08;19.20;99.90
31733;DHT22;18312;51.486;7.144;2022-10-16T14:31:38;19.00;99.90
31733;DHT22;18312;51.486;7.144;2022-10-16T14:34:23;18.90;99.90
31733;DHT22;18312;51.486;7.144;2022-10-16T14:36:53;18.60;99.90
31733;DHT22;18312;51.486;7.144;2022-10-16T14:39:21;18.50;99.90
31733;DHT22;18312;51.486;7.144;2022-10-16T14:41:49;18.50;99.90
31733;DHT22;18312;51.486;7.144;2022-10-16T14:44:17;18.50;99.90
31733;DHT22;18312;51.486;7.144;2022-10-16T14:46:46;18.60;99.90
31733;DHT22;18312;51.486;7.144;2022-10-16T14:49:16;18.50;99.90
31733;DHT22;18312;51.486;7.144;2022-10-16T14:51:44;18.50;99.90
31733;DHT22;18312;51.486;7.144;2022-10-16T14:54:11;18.60;99.90
31733;DHT22;18312;51.486;7.144;2022-10-16T14:56:47;18.70;99.90
31733;DHT22;18312;51.486;7.144;2022-10-16T14:59:17;18.60;99.90
31733;DHT22;18312;51.486;7.144;2022-10-16T15:01:47;18.60;99.90
31733;DHT22;18312;51.486;7.144;2022-10-16T15:04:14;18.60;99.90
31733;DHT22;18312;51.486;7.144;2022-10-16T15:06:42;18.50;99.90
31733;DHT22;18312;51.486;7.144;2022-10-16T15:09:09;18.40;99.90
31733;DHT22;18312;51.486;7.144;2022-10-16T15:11:36;18.40;99.90
31733;DHT22;18312;51.486;7.144;2022-10-16T15:14:04;18.40;99.90
31733;DHT22;18312;51.486;7.144;2022-10-16T15:16:31;18.40;99.90
31733;DHT22;18312;51.486;7.144;2022-10-16T15:19:00;18.30;99.90
31733;DHT22;18312;51.486;7.144;2022-10-16T15:21:28;18.20;99.90
31733;DHT22;18312;51.486;7.144;2022-10-16T15:23:55;18.10;99.90
31733;DHT22;18312;51.486;7.144;2022-10-16T15:26:23;18.10;99.90
31733;DHT22;18312;51.486;7.144;2022-10-16T15:28:49;18.00;99.90
31733;DHT22;18312;51.486;7.144;2022-10-16T15:31:16;18.00;99.90
31733;DHT22;18312;51.486;7.144;2022-10-16T15:33:43;18.00;99.90
31733;DHT22;18312;51.486;7.144;2022-10-16T15:36:14;17.90;99.90
31733;DHT22;18312;51.486;7.144;2022-10-16T15:38:40;17.90;99.90
31733;DHT22;18312;51.486;7.144;2022-10-16T15:41:07;17.80;99.90
31733;DHT22;18312;51.486;7.144;2022-10-16T15:43:34;17.80;99.90
31733;DHT22;18312;51.486;7.144;2022-10-16T15:46:02;17.70;99.90
31733;DHT22;18312;51.486;7.144;2022-10-16T15:48:30;17.70;99.90
31733;DHT22;18312;51.486;7.144;2022-10-16T15:50:58;17.60;99.90
31733;DHT22;18312;51.486;7.144;2022-10-16T15:53:26;17.60;99.90
31733;DHT22;18312;51.486;7.144;2022-10-16T15:55:52;17.60;99.90
31733;DHT22;18312;51.486;7.144;2022-10-16T15:58:19;17.50;99.90